Terminal Aerodrome Forecast
Issued by NWS

Home | Current Version | Previous Version | Text Only | Print | Product List | Glossary On
Versions: 1 2 3 4 5 6 7 8 9 10 11 12 13 14 15
000
FTUS45 KCYS 252111 AAA
TAFAIA
TAF AMD
KAIA 252111Z 2521/2618 29012KT P6SM SCT100
     FM252300 01016G25KT P6SM -SHRA VCTS BKN080CB OVC100
     FM260400 02015G23KT P6SM -SHRA SCT015 OVC050
     FM260900 01013KT P6SM BKN015 OVC025=

USA.gov is the U.S. government's official web portal to all federal, state and local government web resources and services.